sensor_id;sensor_type;location;lat;lon;timestamp;P1;durP1;ratioP1;P2;durP2;ratioP2
26082;SDS011;13848;49.018;12.078;2023-01-26T00:00:29;29.02;;;12.43;;
26082;SDS011;13848;49.018;12.078;2023-01-26T00:02:55;27.95;;;12.38;;
26082;SDS011;13848;49.018;12.078;2023-01-26T00:05:21;31.65;;;12.23;;
26082;SDS011;13848;49.018;12.078;2023-01-26T00:07:47;30.50;;;13.15;;
26082;SDS011;13848;49.018;12.078;2023-01-26T00:10:13;32.65;;;12.27;;
26082;SDS011;13848;49.018;12.078;2023-01-26T00:12:40;26.23;;;12.30;;
26082;SDS011;13848;49.018;12.078;2023-01-26T00:15:06;25.13;;;12.10;;
26082;SDS011;13848;49.018;12.078;2023-01-26T00:17:32;27.40;;;12.05;;
26082;SDS011;13848;49.018;12.078;2023-01-26T00:19:58;23.20;;;10.95;;
26082;SDS011;13848;49.018;12.078;2023-01-26T00:22:25;28.27;;;12.40;;
26082;SDS011;13848;49.018;12.078;2023-01-26T00:24:51;26.75;;;11.13;;
26082;SDS011;13848;49.018;12.078;2023-01-26T00:27:17;28.55;;;12.68;;
26082;SDS011;13848;49.018;12.078;2023-01-26T00:29:44;25.48;;;11.10;;
26082;SDS011;13848;49.018;12.078;2023-01-26T00:32:10;24.83;;;11.32;;
26082;SDS011;13848;49.018;12.078;2023-01-26T00:34:36;25.13;;;10.65;;
26082;SDS011;13848;49.018;12.078;2023-01-26T00:37:02;26.08;;;11.95;;
26082;SDS011;13848;49.018;12.078;2023-01-26T00:39:28;25.33;;;11.80;;
26082;SDS011;13848;49.018;12.078;2023-01-26T00:41:54;30.83;;;12.00;;
26082;SDS011;13848;49.018;12.078;2023-01-26T00:44:20;27.67;;;12.73;;
26082;SDS011;13848;49.018;12.078;2023-01-26T00:46:47;27.10;;;11.88;;
26082;SDS011;13848;49.018;12.078;2023-01-26T00:49:13;27.55;;;11.90;;
26082;SDS011;13848;49.018;12.078;2023-01-26T00:51:39;29.33;;;12.23;;
26082;SDS011;13848;49.018;12.078;2023-01-26T00:54:05;26.58;;;12.55;;
26082;SDS011;13848;49.018;12.078;2023-01-26T00:56:31;25.60;;;11.43;;
26082;SDS011;13848;49.018;12.078;2023-01-26T00:58:57;27.70;;;11.98;;
26082;SDS011;13848;49.018;12.078;2023-01-26T01:01:23;22.90;;;10.98;;
26082;SDS011;13848;49.018;12.078;2023-01-26T01:03:50;27.20;;;12.32;;
26082;SDS011;13848;49.018;12.078;2023-01-26T01:06:16;27.48;;;12.07;;
26082;SDS011;13848;49.018;12.078;2023-01-26T01:08:42;27.38;;;11.88;;
26082;SDS011;13848;49.018;12.078;2023-01-26T01:11:08;26.98;;;11.45;;
26082;SDS011;13848;49.018;12.078;2023-01-26T01:13:35;28.92;;;12.15;;
26082;SDS011;13848;49.018;12.078;2023-01-26T01:16:03;26.85;;;11.77;;
26082;SDS011;13848;49.018;12.078;2023-01-26T01:18:30;25.85;;;11.68;;
26082;SDS011;13848;49.018;12.078;2023-01-26T01:20:57;31.20;;;12.25;;
26082;SDS011;13848;49.018;12.078;2023-01-26T01:23:23;27.67;;;12.25;;
26082;SDS011;13848;49.018;12.078;2023-01-26T01:25:55;26.95;;;11.45;;
26082;SDS011;13848;49.018;12.078;2023-01-26T01:28:21;26.98;;;11.73;;
26082;SDS011;13848;49.018;12.078;2023-01-26T01:30:47;29.85;;;11.70;;
26082;SDS011;13848;49.018;12.078;2023-01-26T01:33:13;26.52;;;10.77;;
26082;SDS011;13848;49.018;12.078;2023-01-26T01:35:39;27.92;;;11.63;;
26082;SDS011;13848;49.018;12.078;2023-01-26T01:38:06;30.35;;;10.98;;
26082;SDS011;13848;49.018;12.078;2023-01-26T01:40:32;25.42;;;11.43;;
26082;SDS011;13848;49.018;12.078;2023-01-26T01:42:58;25.00;;;11.18;;
26082;SDS011;13848;49.018;12.078;2023-01-26T01:45:39;22.30;;;10.55;;
26082;SDS011;13848;49.018;12.078;2023-01-26T01:48:08;25.52;;;10.43;;
26082;SDS011;13848;49.018;12.078;2023-01-26T01:50:42;19.20;;;9.73;;
26082;SDS011;13848;49.018;12.078;2023-01-26T01:53:11;22.13;;;9.90;;
26082;SDS011;13848;49.018;12.078;2023-01-26T01:55:41;23.83;;;9.55;;
26082;SDS011;13848;49.018;12.078;2023-01-26T01:58:07;24.05;;;10.20;;
26082;SDS011;13848;49.018;12.078;2023-01-26T02:00:34;22.92;;;10.43;;
26082;SDS011;13848;49.018;12.078;2023-01-26T02:03:00;19.85;;;10.07;;
26082;SDS011;13848;49.018;12.078;2023-01-26T02:05:30;23.52;;;10.70;;
26082;SDS011;13848;49.018;12.078;2023-01-26T02:07:59;24.27;;;10.40;;
26082;SDS011;13848;49.018;12.078;2023-01-26T02:10:27;25.85;;;10.60;;
26082;SDS011;13848;49.018;12.078;2023-01-26T02:12:54;22.38;;;10.50;;
26082;SDS011;13848;49.018;12.078;2023-01-26T02:15:21;26.77;;;11.38;;
26082;SDS011;13848;49.018;12.078;2023-01-26T02:17:49;20.02;;;9.93;;
26082;SDS011;13848;49.018;12.078;2023-01-26T02:20:18;24.55;;;10.15;;
26082;SDS011;13848;49.018;12.078;2023-01-26T02:22:52;24.88;;;10.48;;
26082;SDS011;13848;49.018;12.078;2023-01-26T02:25:26;20.83;;;9.82;;
26082;SDS011;13848;49.018;12.078;2023-01-26T02:28:06;23.52;;;10.40;;
26082;SDS011;13848;49.018;12.078;2023-01-26T02:30:32;18.95;;;10.07;;
26082;SDS011;13848;49.018;12.078;2023-01-26T02:32:58;20.83;;;10.38;;
26082;SDS011;13848;49.018;12.078;2023-01-26T02:35:24;18.60;;;9.98;;
26082;SDS011;13848;49.018;12.078;2023-01-26T02:37:50;22.25;;;10.25;;
26082;SDS011;13848;49.018;12.078;2023-01-26T02:40:18;21.38;;;10.30;;
26082;SDS011;13848;49.018;12.078;2023-01-26T02:42:50;20.83;;;9.90;;
26082;SDS011;13848;49.018;12.078;2023-01-26T02:45:17;23.42;;;10.73;;
26082;SDS011;13848;49.018;12.078;2023-01-26T02:47:43;22.33;;;10.10;;
26082;SDS011;13848;49.018;12.078;2023-01-26T02:50:09;20.27;;;9.68;;
26082;SDS011;13848;49.018;12.078;2023-01-26T02:52:36;23.27;;;10.88;;
26082;SDS011;13848;49.018;12.078;2023-01-26T02:55:02;23.60;;;10.88;;
26082;SDS011;13848;49.018;12.078;2023-01-26T02:57:29;23.95;;;10.50;;
26082;SDS011;13848;49.018;12.078;2023-01-26T02:59:55;24.83;;;10.00;;
26082;SDS011;13848;49.018;12.078;2023-01-26T03:02:22;21.85;;;10.30;;
26082;SDS011;13848;49.018;12.078;2023-01-26T03:04:48;22.20;;;10.23;;
26082;SDS011;13848;49.018;12.078;2023-01-26T03:07:14;21.90;;;9.63;;
26082;SDS011;13848;49.018;12.078;2023-01-26T03:09:40;20.95;;;9.35;;
26082;SDS011;13848;49.018;12.078;2023-01-26T03:12:06;21.42;;;10.10;;
26082;SDS011;13848;49.018;12.078;2023-01-26T03:14:32;21.13;;;10.07;;
26082;SDS011;13848;49.018;12.078;2023-01-26T03:16:58;25.65;;;10.60;;
26082;SDS011;13848;49.018;12.078;2023-01-26T03:19:26;23.60;;;10.60;;
26082;SDS011;13848;49.018;12.078;2023-01-26T03:21:52;27.17;;;11.00;;
26082;SDS011;13848;49.018;12.078;2023-01-26T03:24:18;20.90;;;10.07;;
26082;SDS011;13848;49.018;12.078;2023-01-26T03:26:44;19.60;;;9.50;;
26082;SDS011;13848;49.018;12.078;2023-01-26T03:29:10;21.58;;;9.93;;
26082;SDS011;13848;49.018;12.078;2023-01-26T03:31:37;22.33;;;10.05;;
26082;SDS011;13848;49.018;12.078;2023-01-26T03:34:03;20.95;;;10.15;;
26082;SDS011;13848;49.018;12.078;2023-01-26T03:36:30;18.35;;;9.48;;
26082;SDS011;13848;49.018;12.078;2023-01-26T03:38:56;19.33;;;9.60;;
26082;SDS011;13848;49.018;12.078;2023-01-26T03:41:22;18.73;;;9.50;;
26082;SDS011;13848;49.018;12.078;2023-01-26T03:43:48;22.00;;;10.43;;
26082;SDS011;13848;49.018;12.078;2023-01-26T03:46:14;22.38;;;10.82;;
26082;SDS011;13848;49.018;12.078;2023-01-26T03:48:40;22.80;;;10.55;;
26082;SDS011;13848;49.018;12.078;2023-01-26T03:51:06;24.52;;;10.60;;
26082;SDS011;13848;49.018;12.078;2023-01-26T03:53:33;21.50;;;9.85;;
26082;SDS011;13848;49.018;12.078;2023-01-26T03:55:59;19.50;;;9.73;;
26082;SDS011;13848;49.018;12.078;2023-01-26T03:58:25;24.88;;;10.20;;
26082;SDS011;13848;49.018;12.078;2023-01-26T04:00:51;18.00;;;9.25;;
26082;SDS011;13848;49.018;12.078;2023-01-26T04:03:17;20.13;;;9.85;;
26082;SDS011;13848;49.018;12.078;2023-01-26T04:05:43;20.90;;;9.95;;
26082;SDS011;13848;49.018;12.078;2023-01-26T04:08:09;21.65;;;10.18;;
26082;SDS011;13848;49.018;12.078;2023-01-26T04:10:36;24.42;;;9.70;;
26082;SDS011;13848;49.018;12.078;2023-01-26T04:13:02;22.27;;;10.30;;
26082;SDS011;13848;49.018;12.078;2023-01-26T04:15:28;19.77;;;9.52;;
26082;SDS011;13848;49.018;12.078;2023-01-26T04:17:54;22.50;;;11.02;;
26082;SDS011;13848;49.018;12.078;2023-01-26T04:20:20;20.23;;;9.90;;
26082;SDS011;13848;49.018;12.078;2023-01-26T04:22:46;18.35;;;9.98;;
26082;SDS011;13848;49.018;12.078;2023-01-26T04:25:12;17.73;;;9.15;;
26082;SDS011;13848;49.018;12.078;2023-01-26T04:27:41;21.83;;;9.90;;
26082;SDS011;13848;49.018;12.078;2023-01-26T04:30:09;20.35;;;9.82;;
26082;SDS011;13848;49.018;12.078;2023-01-26T04:32:37;17.92;;;9.52;;
26082;SDS011;13848;49.018;12.078;2023-01-26T04:35:03;20.23;;;10.48;;
26082;SDS011;13848;49.018;12.078;2023-01-26T04:37:29;20.90;;;9.75;;
26082;SDS011;13848;49.018;12.078;2023-01-26T04:39:55;19.38;;;9.20;;
26082;SDS011;13848;49.018;12.078;2023-01-26T04:42:21;18.55;;;8.88;;
26082;SDS011;13848;49.018;12.078;2023-01-26T04:44:48;19.35;;;9.55;;
26082;SDS011;13848;49.018;12.078;2023-01-26T04:47:15;21.25;;;9.80;;
26082;SDS011;13848;49.018;12.078;2023-01-26T04:49:40;18.20;;;8.82;;
26082;SDS011;13848;49.018;12.078;2023-01-26T04:52:06;19.15;;;9.02;;
26082;SDS011;13848;49.018;12.078;2023-01-26T04:54:32;19.85;;;10.35;;
26082;SDS011;13848;49.018;12.078;2023-01-26T04:56:59;18.90;;;9.00;;
26082;SDS011;13848;49.018;12.078;2023-01-26T04:59:25;23.13;;;9.25;;
26082;SDS011;13848;49.018;12.078;2023-01-26T05:01:52;19.73;;;9.77;;
26082;SDS011;13848;49.018;12.078;2023-01-26T05:04:18;20.13;;;9.32;;
26082;SDS011;13848;49.018;12.078;2023-01-26T05:06:44;18.88;;;9.82;;
26082;SDS011;13848;49.018;12.078;2023-01-26T05:09:10;19.38;;;9.63;;
26082;SDS011;13848;49.018;12.078;2023-01-26T05:11:36;21.05;;;9.50;;
26082;SDS011;13848;49.018;12.078;2023-01-26T05:14:02;22.27;;;9.82;;
26082;SDS011;13848;49.018;12.078;2023-01-26T05:16:28;20.15;;;10.55;;
26082;SDS011;13848;49.018;12.078;2023-01-26T05:18:55;19.10;;;9.55;;
26082;SDS011;13848;49.018;12.078;2023-01-26T05:21:21;21.05;;;9.75;;
26082;SDS011;13848;49.018;12.078;2023-01-26T05:23:47;19.30;;;9.43;;
26082;SDS011;13848;49.018;12.078;2023-01-26T05:26:13;20.90;;;9.93;;
26082;SDS011;13848;49.018;12.078;2023-01-26T05:28:41;23.73;;;10.65;;
26082;SDS011;13848;49.018;12.078;2023-01-26T05:31:07;20.63;;;9.55;;
26082;SDS011;13848;49.018;12.078;2023-01-26T05:33:33;21.50;;;10.60;;
26082;SDS011;13848;49.018;12.078;2023-01-26T05:36:03;23.45;;;11.40;;
26082;SDS011;13848;49.018;12.078;2023-01-26T05:38:31;19.30;;;10.00;;
26082;SDS011;13848;49.018;12.078;2023-01-26T05:40:57;21.15;;;10.10;;
26082;SDS011;13848;49.018;12.078;2023-01-26T05:43:23;19.60;;;10.77;;
26082;SDS011;13848;49.018;12.078;2023-01-26T05:45:49;24.67;;;10.75;;
26082;SDS011;13848;49.018;12.078;2023-01-26T05:48:15;24.80;;;10.70;;
26082;SDS011;13848;49.018;12.078;2023-01-26T05:50:41;22.92;;;10.65;;
26082;SDS011;13848;49.018;12.078;2023-01-26T05:53:09;18.38;;;9.27;;
26082;SDS011;13848;49.018;12.078;2023-01-26T05:55:35;21.17;;;9.73;;
26082;SDS011;13848;49.018;12.078;2023-01-26T05:58:01;19.85;;;8.98;;
26082;SDS011;13848;49.018;12.078;2023-01-26T06:00:27;17.42;;;8.85;;
26082;SDS011;13848;49.018;12.078;2023-01-26T06:02:52;18.83;;;9.02;;
26082;SDS011;13848;49.018;12.078;2023-01-26T06:05:18;20.38;;;9.23;;
26082;SDS011;13848;49.018;12.078;2023-01-26T06:07:44;20.35;;;8.70;;
26082;SDS011;13848;49.018;12.078;2023-01-26T06:10:12;20.85;;;9.00;;
26082;SDS011;13848;49.018;12.078;2023-01-26T06:12:37;21.08;;;9.35;;
26082;SDS011;13848;49.018;12.078;2023-01-26T06:15:04;23.40;;;8.55;;
26082;SDS011;13848;49.018;12.078;2023-01-26T06:17:31;19.27;;;9.32;;
26082;SDS011;13848;49.018;12.078;2023-01-26T06:19:57;18.00;;;8.38;;
26082;SDS011;13848;49.018;12.078;2023-01-26T06:22:23;17.77;;;8.60;;
26082;SDS011;13848;49.018;12.078;2023-01-26T06:24:49;17.88;;;8.45;;
26082;SDS011;13848;49.018;12.078;2023-01-26T06:27:16;18.05;;;7.70;;
26082;SDS011;13848;49.018;12.078;2023-01-26T06:29:43;16.38;;;8.00;;
26082;SDS011;13848;49.018;12.078;2023-01-26T06:32:09;17.33;;;7.38;;
26082;SDS011;13848;49.018;12.078;2023-01-26T06:34:35;18.35;;;8.13;;
26082;SDS011;13848;49.018;12.078;2023-01-26T06:37:01;16.13;;;7.78;;
26082;SDS011;13848;49.018;12.078;2023-01-26T06:39:26;16.17;;;7.82;;
26082;SDS011;13848;49.018;12.078;2023-01-26T06:41:54;16.23;;;8.18;;
26082;SDS011;13848;49.018;12.078;2023-01-26T06:44:22;20.52;;;8.27;;
26082;SDS011;13848;49.018;12.078;2023-01-26T06:46:48;17.20;;;8.43;;
26082;SDS011;13848;49.018;12.078;2023-01-26T06:49:14;18.02;;;8.18;;
26082;SDS011;13848;49.018;12.078;2023-01-26T06:54:20;16.45;;;7.28;;
26082;SDS011;13848;49.018;12.078;2023-01-26T06:56:46;19.88;;;8.60;;
26082;SDS011;13848;49.018;12.078;2023-01-26T06:59:12;17.90;;;8.65;;
26082;SDS011;13848;49.018;12.078;2023-01-26T07:01:41;19.17;;;8.23;;
26082;SDS011;13848;49.018;12.078;2023-01-26T07:04:08;17.50;;;8.25;;
26082;SDS011;13848;49.018;12.078;2023-01-26T07:06:35;20.27;;;8.77;;
26082;SDS011;13848;49.018;12.078;2023-01-26T07:09:01;19.35;;;8.43;;
26082;SDS011;13848;49.018;12.078;2023-01-26T07:11:27;20.08;;;9.25;;
26082;SDS011;13848;49.018;12.078;2023-01-26T07:13:53;21.90;;;8.88;;
26082;SDS011;13848;49.018;12.078;2023-01-26T07:16:19;20.33;;;8.50;;
26082;SDS011;13848;49.018;12.078;2023-01-26T07:18:46;17.40;;;8.68;;
26082;SDS011;13848;49.018;12.078;2023-01-26T07:21:13;22.40;;;7.68;;
26082;SDS011;13848;49.018;12.078;2023-01-26T07:23:41;16.67;;;7.55;;
26082;SDS011;13848;49.018;12.078;2023-01-26T07:26:07;16.23;;;7.38;;
26082;SDS011;13848;49.018;12.078;2023-01-26T07:28:33;13.98;;;6.80;;
26082;SDS011;13848;49.018;12.078;2023-01-26T07:30:59;17.23;;;7.47;;
26082;SDS011;13848;49.018;12.078;2023-01-26T07:33:27;14.85;;;6.53;;
26082;SDS011;13848;49.018;12.078;2023-01-26T07:35:54;15.02;;;6.60;;
26082;SDS011;13848;49.018;12.078;2023-01-26T07:38:21;13.70;;;6.70;;
26082;SDS011;13848;49.018;12.078;2023-01-26T07:40:47;14.55;;;6.30;;
26082;SDS011;13848;49.018;12.078;2023-01-26T07:43:14;15.50;;;6.38;;
26082;SDS011;13848;49.018;12.078;2023-01-26T07:45:43;13.10;;;6.30;;
26082;SDS011;13848;49.018;12.078;2023-01-26T07:48:09;14.15;;;6.07;;
26082;SDS011;13848;49.018;12.078;2023-01-26T07:50:36;14.10;;;6.10;;
26082;SDS011;13848;49.018;12.078;2023-01-26T07:53:04;16.63;;;7.25;;
26082;SDS011;13848;49.018;12.078;2023-01-26T07:55:29;15.18;;;6.43;;
26082;SDS011;13848;49.018;12.078;2023-01-26T07:57:55;13.55;;;6.60;;
26082;SDS011;13848;49.018;12.078;2023-01-26T08:00:21;13.93;;;7.10;;
26082;SDS011;13848;49.018;12.078;2023-01-26T08:02:48;15.00;;;6.80;;
26082;SDS011;13848;49.018;12.078;2023-01-26T08:05:14;12.05;;;6.35;;
26082;SDS011;13848;49.018;12.078;2023-01-26T08:07:41;12.63;;;6.60;;
26082;SDS011;13848;49.018;12.078;2023-01-26T08:10:09;13.45;;;6.60;;
26082;SDS011;13848;49.018;12.078;2023-01-26T08:12:35;12.63;;;6.47;;
26082;SDS011;13848;49.018;12.078;2023-01-26T08:15:01;12.18;;;6.60;;
26082;SDS011;13848;49.018;12.078;2023-01-26T08:17:28;14.55;;;6.68;;
26082;SDS011;13848;49.018;12.078;2023-01-26T08:19:54;13.65;;;6.95;;
26082;SDS011;13848;49.018;12.078;2023-01-26T08:22:20;12.23;;;6.68;;
26082;SDS011;13848;49.018;12.078;2023-01-26T08:24:46;12.68;;;6.63;;
26082;SDS011;13848;49.018;12.078;2023-01-26T08:27:13;14.52;;;6.57;;
26082;SDS011;13848;49.018;12.078;2023-01-26T08:29:39;13.43;;;6.68;;
26082;SDS011;13848;49.018;12.078;2023-01-26T08:32:05;12.85;;;6.28;;
26082;SDS011;13848;49.018;12.078;2023-01-26T08:34:31;10.52;;;5.63;;
26082;SDS011;13848;49.018;12.078;2023-01-26T08:36:57;13.07;;;5.68;;
26082;SDS011;13848;49.018;12.078;2023-01-26T08:39:23;13.15;;;6.25;;
26082;SDS011;13848;49.018;12.078;2023-01-26T08:41:49;13.00;;;6.40;;
26082;SDS011;13848;49.018;12.078;2023-01-26T08:44:16;10.88;;;5.72;;
26082;SDS011;13848;49.018;12.078;2023-01-26T08:46:42;12.68;;;5.68;;
26082;SDS011;13848;49.018;12.078;2023-01-26T08:49:08;12.98;;;6.00;;
26082;SDS011;13848;49.018;12.078;2023-01-26T08:51:34;12.02;;;6.18;;
26082;SDS011;13848;49.018;12.078;2023-01-26T08:54:00;12.55;;;5.75;;
26082;SDS011;13848;49.018;12.078;2023-01-26T08:56:26;12.23;;;5.43;;
26082;SDS011;13848;49.018;12.078;2023-01-26T08:58:52;11.73;;;5.43;;
26082;SDS011;13848;49.018;12.078;2023-01-26T09:01:19;13.02;;;5.97;;
26082;SDS011;13848;49.018;12.078;2023-01-26T09:03:45;12.23;;;5.93;;
26082;SDS011;13848;49.018;12.078;2023-01-26T09:06:12;11.65;;;5.43;;
26082;SDS011;13848;49.018;12.078;2023-01-26T09:08:38;11.25;;;5.63;;
26082;SDS011;13848;49.018;12.078;2023-01-26T09:11:05;11.35;;;5.07;;
26082;SDS011;13848;49.018;12.078;2023-01-26T09:13:32;9.48;;;5.13;;
26082;SDS011;13848;49.018;12.078;2023-01-26T09:16:01;11.82;;;5.97;;
26082;SDS011;13848;49.018;12.078;2023-01-26T09:18:29;11.32;;;5.03;;
26082;SDS011;13848;49.018;12.078;2023-01-26T09:21:00;14.93;;;5.53;;
26082;SDS011;13848;49.018;12.078;2023-01-26T09:23:27;11.13;;;5.97;;
26082;SDS011;13848;49.018;12.078;2023-01-26T09:25:53;11.13;;;5.93;;
26082;SDS011;13848;49.018;12.078;2023-01-26T09:28:19;13.57;;;5.72;;
26082;SDS011;13848;49.018;12.078;2023-01-26T09:30:45;15.80;;;6.10;;
26082;SDS011;13848;49.018;12.078;2023-01-26T09:33:11;11.88;;;5.40;;
26082;SDS011;13848;49.018;12.078;2023-01-26T09:35:38;9.88;;;5.35;;
26082;SDS011;13848;49.018;12.078;2023-01-26T09:38:04;9.40;;;5.22;;
26082;SDS011;13848;49.018;12.078;2023-01-26T09:40:33;11.48;;;5.45;;
26082;SDS011;13848;49.018;12.078;2023-01-26T09:43:08;7.97;;;4.82;;
26082;SDS011;13848;49.018;12.078;2023-01-26T09:45:45;8.27;;;4.57;;
26082;SDS011;13848;49.018;12.078;2023-01-26T09:48:21;11.75;;;5.50;;
26082;SDS011;13848;49.018;12.078;2023-01-26T09:50:56;9.13;;;5.00;;
26082;SDS011;13848;49.018;12.078;2023-01-26T09:53:27;9.80;;;5.25;;
26082;SDS011;13848;49.018;12.078;2023-01-26T09:56:03;11.65;;;5.28;;
26082;SDS011;13848;49.018;12.078;2023-01-26T09:58:30;12.40;;;5.70;;
26082;SDS011;13848;49.018;12.078;2023-01-26T10:00:59;11.90;;;5.45;;
26082;SDS011;13848;49.018;12.078;2023-01-26T10:03:28;12.02;;;5.10;;
26082;SDS011;13848;49.018;12.078;2023-01-26T10:06:02;10.63;;;5.63;;
26082;SDS011;13848;49.018;12.078;2023-01-26T10:08:36;9.57;;;5.32;;
26082;SDS011;13848;49.018;12.078;2023-01-26T10:11:03;11.02;;;5.53;;
26082;SDS011;13848;49.018;12.078;2023-01-26T10:13:32;10.90;;;5.32;;
26082;SDS011;13848;49.018;12.078;2023-01-26T10:15:59;9.13;;;4.90;;
26082;SDS011;13848;49.018;12.078;2023-01-26T10:18:27;12.85;;;5.90;;
26082;SDS011;13848;49.018;12.078;2023-01-26T10:20:58;10.27;;;5.53;;
26082;SDS011;13848;49.018;12.078;2023-01-26T10:23:29;12.57;;;5.60;;
26082;SDS011;13848;49.018;12.078;2023-01-26T10:25:57;12.80;;;6.15;;
26082;SDS011;13848;49.018;12.078;2023-01-26T10:28:32;11.38;;;4.95;;
26082;SDS011;13848;49.018;12.078;2023-01-26T10:30:58;11.18;;;5.80;;
26082;SDS011;13848;49.018;12.078;2023-01-26T10:33:26;11.88;;;6.18;;
26082;SDS011;13848;49.018;12.078;2023-01-26T10:35:56;11.93;;;6.03;;
26082;SDS011;13848;49.018;12.078;2023-01-26T10:38:26;11.57;;;5.72;;
26082;SDS011;13848;49.018;12.078;2023-01-26T10:41:06;13.50;;;6.40;;
26082;SDS011;13848;49.018;12.078;2023-01-26T10:43:51;13.05;;;5.68;;
26082;SDS011;13848;49.018;12.078;2023-01-26T10:46:23;13.02;;;5.93;;
26082;SDS011;13848;49.018;12.078;2023-01-26T10:48:50;9.82;;;5.15;;
26082;SDS011;13848;49.018;12.078;2023-01-26T10:51:20;10.60;;;5.38;;
26082;SDS011;13848;49.018;12.078;2023-01-26T10:53:50;10.90;;;5.20;;
26082;SDS011;13848;49.018;12.078;2023-01-26T10:56:41;12.35;;;5.75;;
26082;SDS011;13848;49.018;12.078;2023-01-26T10:59:08;10.50;;;5.35;;
26082;SDS011;13848;49.018;12.078;2023-01-26T11:01:49;12.20;;;6.03;;
26082;SDS011;13848;49.018;12.078;2023-01-26T11:04:16;12.40;;;5.88;;
26082;SDS011;13848;49.018;12.078;2023-01-26T11:06:42;10.65;;;5.32;;
26082;SDS011;13848;49.018;12.078;2023-01-26T11:09:10;11.20;;;4.88;;
26082;SDS011;13848;49.018;12.078;2023-01-26T11:11:48;14.02;;;5.82;;
26082;SDS011;13848;49.018;12.078;2023-01-26T11:14:20;10.93;;;5.00;;
26082;SDS011;13848;49.018;12.078;2023-01-26T11:16:46;10.95;;;5.72;;
26082;SDS011;13848;49.018;12.078;2023-01-26T11:19:21;11.23;;;5.60;;
26082;SDS011;13848;49.018;12.078;2023-01-26T11:22:07;12.60;;;4.85;;
26082;SDS011;13848;49.018;12.078;2023-01-26T11:24:39;13.27;;;5.45;;
26082;SDS011;13848;49.018;12.078;2023-01-26T11:27:19;11.15;;;5.60;;
26082;SDS011;13848;49.018;12.078;2023-01-26T11:32:45;9.77;;;4.65;;
26082;SDS011;13848;49.018;12.078;2023-01-26T11:35:21;12.27;;;5.22;;
26082;SDS011;13848;49.018;12.078;2023-01-26T11:37:58;10.88;;;5.65;;
26082;SDS011;13848;49.018;12.078;2023-01-26T11:40:35;12.55;;;5.93;;
26082;SDS011;13848;49.018;12.078;2023-01-26T11:43:16;11.90;;;5.20;;
26082;SDS011;13848;49.018;12.078;2023-01-26T11:48:45;9.63;;;4.65;;
26082;SDS011;13848;49.018;12.078;2023-01-26T11:51:27;11.27;;;5.25;;
26082;SDS011;13848;49.018;12.078;2023-01-26T11:54:12;11.38;;;5.35;;
26082;SDS011;13848;49.018;12.078;2023-01-26T11:56:50;12.15;;;5.35;;
26082;SDS011;13848;49.018;12.078;2023-01-26T11:59:23;8.68;;;4.50;;
26082;SDS011;13848;49.018;12.078;2023-01-26T12:01:54;10.85;;;4.72;;
26082;SDS011;13848;49.018;12.078;2023-01-26T12:04:24;9.55;;;5.05;;
26082;SDS011;13848;49.018;12.078;2023-01-26T12:06:51;9.68;;;4.70;;
26082;SDS011;13848;49.018;12.078;2023-01-26T12:09:24;15.10;;;5.05;;
26082;SDS011;13848;49.018;12.078;2023-01-26T12:11:56;6.78;;;3.97;;
26082;SDS011;13848;49.018;12.078;2023-01-26T12:14:28;7.35;;;4.00;;
26082;SDS011;13848;49.018;12.078;2023-01-26T12:17:19;8.20;;;4.05;;
26082;SDS011;13848;49.018;12.078;2023-01-26T12:19:53;8.90;;;4.15;;
26082;SDS011;13848;49.018;12.078;2023-01-26T12:22:27;7.72;;;4.53;;
26082;SDS011;13848;49.018;12.078;2023-01-26T12:24:56;7.75;;;3.70;;
26082;SDS011;13848;49.018;12.078;2023-01-26T12:27:29;6.65;;;3.92;;
26082;SDS011;13848;49.018;12.078;2023-01-26T12:30:02;8.40;;;4.07;;
26082;SDS011;13848;49.018;12.078;2023-01-26T12:32:39;7.93;;;3.47;;
26082;SDS011;13848;49.018;12.078;2023-01-26T12:35:09;8.98;;;4.32;;
26082;SDS011;13848;49.018;12.078;2023-01-26T12:37:46;8.40;;;4.10;;
26082;SDS011;13848;49.018;12.078;2023-01-26T12:42:53;7.60;;;3.53;;
26082;SDS011;13848;49.018;12.078;2023-01-26T12:45:31;7.37;;;3.90;;
26082;SDS011;13848;49.018;12.078;2023-01-26T12:48:04;8.77;;;3.88;;
26082;SDS011;13848;49.018;12.078;2023-01-26T12:50:37;8.52;;;3.92;;
26082;SDS011;13848;49.018;12.078;2023-01-26T12:53:05;7.22;;;3.80;;
26082;SDS011;13848;49.018;12.078;2023-01-26T12:55:37;7.63;;;3.75;;
26082;SDS011;13848;49.018;12.078;2023-01-26T12:58:09;8.63;;;4.03;;
26082;SDS011;13848;49.018;12.078;2023-01-26T13:00:38;9.35;;;3.90;;
26082;SDS011;13848;49.018;12.078;2023-01-26T13:03:06;8.55;;;4.10;;
26082;SDS011;13848;49.018;12.078;2023-01-26T13:05:53;7.68;;;3.75;;
26082;SDS011;13848;49.018;12.078;2023-01-26T13:08:38;6.93;;;3.83;;
26082;SDS011;13848;49.018;12.078;2023-01-26T13:11:39;7.68;;;3.97;;
26082;SDS011;13848;49.018;12.078;2023-01-26T13:14:28;9.73;;;3.80;;
26082;SDS011;13848;49.018;12.078;2023-01-26T13:20:13;7.18;;;3.95;;
26082;SDS011;13848;49.018;12.078;2023-01-26T13:22:46;8.55;;;4.38;;
26082;SDS011;13848;49.018;12.078;2023-01-26T13:25:13;9.93;;;4.10;;
26082;SDS011;13848;49.018;12.078;2023-01-26T13:27:43;7.95;;;4.20;;
26082;SDS011;13848;49.018;12.078;2023-01-26T13:30:31;5.90;;;3.60;;
26082;SDS011;13848;49.018;12.078;2023-01-26T13:33:04;8.13;;;4.25;;
26082;SDS011;13848;49.018;12.078;2023-01-26T13:35:36;10.48;;;4.30;;
26082;SDS011;13848;49.018;12.078;2023-01-26T13:38:05;8.43;;;4.50;;
26082;SDS011;13848;49.018;12.078;2023-01-26T13:40:39;7.28;;;4.05;;
26082;SDS011;13848;49.018;12.078;2023-01-26T13:43:10;6.32;;;3.60;;
26082;SDS011;13848;49.018;12.078;2023-01-26T13:45:44;25.02;;;11.27;;
26082;SDS011;13848;49.018;12.078;2023-01-26T13:48:23;6.95;;;3.60;;
26082;SDS011;13848;49.018;12.078;2023-01-26T13:51:04;7.97;;;3.35;;
26082;SDS011;13848;49.018;12.078;2023-01-26T13:53:32;5.63;;;3.03;;
26082;SDS011;13848;49.018;12.078;2023-01-26T13:56:01;5.53;;;3.60;;
26082;SDS011;13848;49.018;12.078;2023-01-26T13:58:29;7.97;;;3.50;;
26082;SDS011;13848;49.018;12.078;2023-01-26T14:00:57;6.38;;;3.03;;
26082;SDS011;13848;49.018;12.078;2023-01-26T14:03:25;6.68;;;3.05;;
26082;SDS011;13848;49.018;12.078;2023-01-26T14:05:51;7.10;;;3.35;;
26082;SDS011;13848;49.018;12.078;2023-01-26T14:08:20;5.70;;;3.20;;
26082;SDS011;13848;49.018;12.078;2023-01-26T14:10:46;6.90;;;3.47;;
26082;SDS011;13848;49.018;12.078;2023-01-26T14:13:13;6.40;;;3.17;;
26082;SDS011;13848;49.018;12.078;2023-01-26T14:15:53;7.25;;;3.55;;
26082;SDS011;13848;49.018;12.078;2023-01-26T14:18:21;6.45;;;3.47;;
26082;SDS011;13848;49.018;12.078;2023-01-26T14:20:47;5.97;;;3.40;;
26082;SDS011;13848;49.018;12.078;2023-01-26T14:23:14;5.65;;;3.10;;
26082;SDS011;13848;49.018;12.078;2023-01-26T14:25:43;6.57;;;3.80;;
26082;SDS011;13848;49.018;12.078;2023-01-26T14:28:12;7.53;;;4.15;;
26082;SDS011;13848;49.018;12.078;2023-01-26T14:30:39;6.10;;;3.35;;
26082;SDS011;13848;49.018;12.078;2023-01-26T14:33:08;6.93;;;3.40;;
26082;SDS011;13848;49.018;12.078;2023-01-26T14:35:39;7.60;;;3.45;;
26082;SDS011;13848;49.018;12.078;2023-01-26T14:38:13;7.10;;;3.75;;
26082;SDS011;13848;49.018;12.078;2023-01-26T14:40:42;7.03;;;3.80;;
26082;SDS011;13848;49.018;12.078;2023-01-26T14:43:09;7.45;;;3.58;;